createdAt,value
2022-11-24T00:01:33.348Z,5.80
2022-11-24T00:04:16.142Z,5.80
2022-11-24T00:07:11.831Z,5.70
2022-11-24T00:09:40.076Z,5.80
2022-11-24T00:12:08.512Z,5.80
2022-11-24T00:14:39.528Z,5.80
2022-11-24T00:17:08.288Z,5.80
2022-11-24T00:19:42.151Z,5.90
2022-11-24T00:22:13.670Z,5.90
2022-11-24T00:24:43.384Z,5.90
2022-11-24T00:27:12.885Z,5.90
2022-11-24T00:29:43.737Z,5.90
2022-11-24T00:32:16.557Z,5.90
2022-11-24T00:34:44.806Z,5.90
2022-11-24T00:37:13.072Z,5.90
2022-11-24T00:39:41.370Z,5.90
2022-11-24T00:42:09.917Z,6.00
2022-11-24T00:44:39.108Z,6.00
2022-11-24T00:47:08.918Z,6.00
2022-11-24T00:49:40.755Z,6.00
2022-11-24T00:52:14.875Z,6.10
2022-11-24T00:54:45.780Z,6.10
2022-11-24T00:57:15.432Z,6.10
2022-11-24T00:59:43.643Z,6.10
2022-11-24T01:02:15.983Z,6.10
2022-11-24T01:04:45.344Z,6.10
2022-11-24T01:07:13.653Z,6.20
2022-11-24T01:09:45.658Z,6.20
2022-11-24T01:12:15.348Z,6.20
2022-11-24T01:14:43.544Z,6.20
2022-11-24T01:17:13.321Z,6.20
2022-11-24T01:19:46.585Z,6.20
2022-11-24T01:22:30.972Z,6.30
2022-11-24T01:25:30.683Z,6.30
2022-11-24T01:27:59.446Z,6.30
2022-11-24T01:30:27.749Z,6.40
2022-11-24T01:32:57.399Z,6.40
2022-11-24T01:35:25.876Z,6.40
2022-11-24T01:37:54.105Z,6.40
2022-11-24T01:40:22.877Z,6.40
2022-11-24T01:42:53.269Z,6.40
2022-11-24T01:45:41.335Z,6.40
2022-11-24T01:48:17.641Z,6.30
2022-11-24T01:50:46.881Z,6.40
2022-11-24T01:53:15.736Z,6.40
2022-11-24T01:55:44.305Z,6.30
2022-11-24T01:58:16.790Z,6.40
2022-11-24T02:00:46.938Z,6.40
2022-11-24T02:03:21.537Z,6.40
2022-11-24T02:05:55.365Z,6.30
2022-11-24T02:08:33.923Z,6.40
2022-11-24T02:11:06.357Z,6.40
2022-11-24T02:13:39.481Z,6.40
2022-11-24T02:16:09.882Z,6.40
2022-11-24T02:18:41.105Z,6.40
2022-11-24T02:21:10.626Z,6.40
2022-11-24T02:23:50.656Z,6.40
2022-11-24T02:26:34.707Z,6.40
2022-11-24T02:29:04.681Z,6.40
2022-11-24T02:31:35.002Z,6.40
2022-11-24T02:34:03.242Z,6.40
2022-11-24T02:36:31.542Z,6.40
2022-11-24T02:39:02.475Z,6.40
2022-11-24T02:41:33.537Z,6.40
2022-11-24T02:44:06.174Z,6.40
2022-11-24T02:46:36.785Z,6.50
2022-11-24T02:49:05.104Z,6.50
2022-11-24T02:51:35.020Z,6.50
2022-11-24T02:54:03.248Z,6.50
2022-11-24T02:56:34.210Z,6.60
2022-11-24T02:59:04.898Z,6.50
2022-11-24T03:01:34.634Z,6.50
2022-11-24T03:04:04.578Z,6.50
2022-11-24T03:06:32.756Z,6.50
2022-11-24T03:09:01.036Z,6.60
2022-11-24T03:11:29.634Z,6.60
2022-11-24T03:16:44.176Z,6.50
2022-11-24T03:19:12.628Z,6.50
2022-11-24T03:21:40.926Z,6.40
2022-11-24T03:24:10.262Z,6.50
2022-11-24T03:26:45.126Z,6.40
2022-11-24T03:29:16.933Z,6.40
2022-11-24T03:31:45.414Z,6.40
2022-11-24T03:34:15.061Z,6.50
2022-11-24T03:36:43.575Z,6.50
2022-11-24T03:39:11.852Z,6.50
2022-11-24T03:41:41.291Z,6.60
2022-11-24T03:44:09.521Z,6.60
2022-11-24T03:46:41.539Z,6.70
2022-11-24T03:49:11.017Z,6.70
2022-11-24T03:51:39.240Z,6.70
2022-11-24T03:54:08.634Z,6.70
2022-11-24T03:56:38.929Z,6.80
2022-11-24T03:59:08.813Z,6.80
2022-11-24T04:04:47.050Z,6.80
2022-11-24T04:07:19.588Z,6.90
2022-11-24T04:09:47.881Z,6.80
2022-11-24T04:12:33.653Z,6.80
2022-11-24T04:15:02.052Z,6.80
2022-11-24T04:17:32.701Z,6.90
2022-11-24T04:20:00.840Z,6.90
2022-11-24T04:22:30.500Z,6.80
2022-11-24T04:24:58.668Z,6.80
2022-11-24T04:27:30.813Z,6.80
2022-11-24T04:29:59.105Z,6.80
2022-11-24T04:32:27.731Z,6.80
2022-11-24T04:34:58.382Z,6.70
2022-11-24T04:40:29.275Z,6.70
2022-11-24T04:42:58.008Z,6.70
2022-11-24T04:45:27.413Z,6.70
2022-11-24T04:47:55.817Z,6.70
2022-11-24T04:50:26.591Z,6.70
2022-11-24T04:53:00.147Z,6.70
2022-11-24T04:55:28.518Z,6.70
2022-11-24T04:57:56.773Z,6.70
2022-11-24T05:00:25.981Z,6.70
2022-11-24T05:03:04.625Z,6.70
2022-11-24T05:08:28.365Z,6.70
2022-11-24T05:10:57.569Z,6.70
2022-11-24T05:19:44.209Z,6.80
2022-11-24T05:22:14.931Z,6.80
2022-11-24T05:24:45.841Z,6.80
2022-11-24T05:27:15.111Z,6.90
2022-11-24T05:29:43.668Z,6.90
2022-11-24T05:32:13.207Z,7.00
2022-11-24T05:34:43.873Z,7.00
2022-11-24T05:37:55.464Z,7.00
2022-11-24T05:40:45.853Z,7.00
2022-11-24T05:43:20.683Z,7.00
2022-11-24T05:46:07.046Z,7.00
2022-11-24T05:51:47.011Z,7.00
2022-11-24T06:00:48.444Z,7.00
2022-11-24T06:03:16.690Z,7.00
2022-11-24T06:05:48.719Z,7.00
2022-11-24T06:09:03.112Z,7.10
2022-11-24T06:11:41.367Z,7.20
2022-11-24T06:21:10.400Z,7.20
2022-11-24T06:23:41.037Z,7.20
2022-11-24T06:26:09.695Z,7.20
2022-11-24T06:28:37.948Z,7.20
2022-11-24T06:31:15.220Z,7.20
2022-11-24T06:40:48.258Z,7.00
2022-11-24T06:43:22.063Z,7.00
2022-11-24T06:46:26.269Z,7.10
2022-11-24T06:53:12.709Z,7.10
2022-11-24T06:55:50.762Z,7.10
2022-11-24T06:59:18.377Z,7.10
2022-11-24T07:02:15.866Z,7.10
2022-11-24T07:04:44.683Z,7.10
2022-11-24T07:07:15.487Z,7.10
2022-11-24T07:09:54.455Z,7.20
2022-11-24T07:12:24.390Z,7.20
2022-11-24T07:14:53.171Z,7.20
2022-11-24T07:17:23.122Z,7.20
2022-11-24T07:19:52.389Z,7.30
2022-11-24T07:22:23.364Z,7.30
2022-11-24T07:24:53.091Z,7.30
2022-11-24T07:27:22.257Z,7.30
2022-11-24T07:29:50.749Z,7.40
2022-11-24T07:32:51.484Z,7.50
2022-11-24T07:36:09.551Z,7.50
2022-11-24T07:38:39.352Z,7.50
2022-11-24T07:41:09.471Z,7.50
2022-11-24T07:46:43.855Z,7.60
2022-11-24T07:49:12.085Z,7.70
2022-11-24T07:51:45.047Z,7.60
2022-11-24T07:54:14.961Z,7.60
2022-11-24T07:56:51.270Z,7.60
2022-11-24T07:59:24.310Z,7.50
2022-11-24T08:01:52.801Z,7.60
2022-11-24T08:04:29.179Z,7.70
2022-11-24T08:10:10.392Z,7.60
2022-11-24T08:12:44.974Z,7.70
2022-11-24T08:15:19.171Z,7.70
2022-11-24T08:17:47.706Z,7.70
2022-11-24T08:20:16.260Z,7.80
2022-11-24T08:22:48.718Z,7.90
2022-11-24T08:25:19.014Z,7.90
2022-11-24T08:27:47.317Z,7.90
2022-11-24T08:30:20.045Z,7.90
2022-11-24T08:32:48.271Z,7.90
2022-11-24T08:35:18.227Z,7.90
2022-11-24T08:37:46.384Z,8.00
2022-11-24T08:40:24.846Z,8.00
2022-11-24T08:43:16.653Z,8.00
2022-11-24T08:45:47.450Z,7.90
2022-11-24T08:48:15.824Z,8.00
2022-11-24T08:50:44.185Z,7.90
2022-11-24T08:53:12.636Z,8.00
2022-11-24T08:56:17.528Z,8.00
2022-11-24T08:58:45.989Z,7.90
2022-11-24T09:01:17.882Z,8.00
2022-11-24T09:03:50.699Z,8.00
2022-11-24T09:06:22.903Z,8.00
2022-11-24T09:08:58.797Z,8.00
2022-11-24T09:11:31.229Z,8.00
2022-11-24T09:13:59.521Z,8.00
2022-11-24T09:16:39.377Z,8.00
2022-11-24T09:19:09.143Z,8.00
2022-11-24T09:21:39.102Z,8.00
2022-11-24T09:24:11.452Z,8.00
2022-11-24T09:26:47.327Z,8.00
2022-11-24T09:29:37.243Z,8.00
2022-11-24T09:32:07.252Z,8.00
2022-11-24T09:34:45.440Z,8.10
2022-11-24T09:37:29.605Z,8.10
2022-11-24T09:40:03.011Z,8.00
2022-11-24T09:42:50.669Z,8.00
2022-11-24T09:45:57.494Z,8.10
2022-11-24T09:48:28.031Z,8.10
2022-11-24T09:50:59.509Z,8.00
2022-11-24T09:53:33.519Z,7.80
2022-11-24T09:56:14.575Z,7.60
2022-11-24T10:02:29.654Z,7.60
2022-11-24T10:05:02.468Z,7.60
2022-11-24T10:07:39.339Z,7.60
2022-11-24T10:10:22.914Z,7.60
2022-11-24T10:13:08.511Z,7.50
2022-11-24T10:19:36.498Z,7.60
2022-11-24T10:22:26.516Z,7.40
2022-11-24T10:25:19.990Z,7.60
2022-11-24T10:27:55.966Z,7.50
2022-11-24T10:30:25.217Z,7.70
2022-11-24T10:32:59.367Z,7.70
2022-11-24T10:36:04.498Z,7.50
2022-11-24T10:39:17.126Z,7.80
2022-11-24T10:42:31.732Z,7.80
2022-11-24T10:45:05.415Z,7.60
2022-11-24T10:47:33.793Z,7.80
2022-11-24T10:50:04.796Z,7.60
2022-11-24T10:52:42.539Z,7.80
2022-11-24T10:55:13.918Z,7.80
2022-11-24T10:57:45.334Z,7.90
2022-11-24T11:00:34.425Z,7.90
2022-11-24T11:03:25.696Z,8.20
2022-11-24T11:12:51.575Z,8.00
2022-11-24T11:15:33.839Z,7.90
2022-11-24T11:18:07.282Z,7.90
2022-11-24T11:24:02.215Z,8.20
2022-11-24T11:27:27.488Z,8.00
2022-11-24T11:35:23.231Z,8.00
2022-11-24T11:38:16.336Z,7.90
2022-11-24T11:40:53.886Z,7.80
2022-11-24T11:50:06.549Z,8.20
2022-11-24T11:53:03.989Z,8.20
2022-11-24T12:00:06.506Z,8.20
2022-11-24T12:03:16.968Z,8.30
2022-11-24T12:13:02.486Z,8.30
2022-11-24T12:15:38.870Z,8.10
2022-11-24T12:18:59.412Z,8.00
2022-11-24T12:35:47.019Z,8.20
2022-11-24T12:39:07.953Z,8.30
2022-11-24T12:41:51.912Z,8.40
2022-11-24T12:44:36.801Z,8.30
2022-11-24T12:47:30.469Z,8.40
2022-11-24T12:50:33.832Z,8.50
2022-11-24T12:53:12.002Z,8.50
2022-11-24T12:55:47.427Z,8.50
2022-11-24T12:58:37.396Z,8.60
2022-11-24T13:01:46.003Z,8.70
2022-11-24T13:08:15.594Z,8.50
2022-11-24T13:11:11.573Z,8.60
2022-11-24T13:14:29.138Z,8.70
2022-11-24T13:18:05.137Z,8.50
2022-11-24T13:20:58.668Z,8.50
2022-11-24T13:23:58.093Z,8.40
2022-11-24T13:26:47.709Z,8.40
2022-11-24T13:29:48.544Z,8.60
2022-11-24T13:33:02.249Z,8.60
2022-11-24T13:35:44.738Z,8.60
2022-11-24T13:38:52.386Z,8.50
2022-11-24T13:42:42.474Z,8.40
2022-11-24T13:45:55.656Z,8.50
2022-11-24T13:49:22.713Z,8.30
2022-11-24T13:55:47.260Z,8.10
2022-11-24T13:58:47.072Z,8.10
2022-11-24T14:01:33.991Z,8.10
2022-11-24T14:04:51.706Z,8.10
2022-11-24T14:07:47.394Z,7.80
2022-11-24T14:10:19.739Z,7.70
2022-11-24T14:12:49.774Z,7.70
2022-11-24T14:15:30.548Z,7.70
2022-11-24T14:18:08.066Z,7.70
2022-11-24T14:20:39.023Z,7.70
2022-11-24T14:23:11.427Z,7.60
2022-11-24T14:25:42.839Z,7.50
2022-11-24T14:28:21.219Z,7.50
2022-11-24T14:30:49.786Z,7.50
2022-11-24T14:33:21.953Z,7.50
2022-11-24T14:35:54.512Z,7.40
2022-11-24T14:38:25.564Z,7.40
2022-11-24T14:40:55.735Z,7.50
2022-11-24T14:43:30.158Z,7.50
2022-11-24T14:46:02.966Z,7.60
2022-11-24T14:49:00.257Z,7.70
2022-11-24T14:51:37.515Z,7.80
2022-11-24T14:54:37.391Z,7.90
2022-11-24T14:57:32.602Z,7.90
2022-11-24T15:00:17.781Z,7.90
2022-11-24T15:02:50.545Z,7.80
2022-11-24T15:05:25.038Z,7.70
2022-11-24T15:14:39.658Z,7.80
2022-11-24T15:17:31.238Z,7.70
2022-11-24T15:23:33.047Z,7.70
2022-11-24T15:26:55.952Z,7.70
2022-11-24T15:33:35.214Z,7.50
2022-11-24T15:36:45.453Z,7.40
2022-11-24T15:40:05.006Z,7.30
2022-11-24T15:46:05.056Z,7.30
2022-11-24T15:48:38.850Z,7.20
2022-11-24T15:51:32.180Z,7.20
2022-11-24T15:54:16.171Z,7.10
2022-11-24T15:56:46.082Z,7.10
2022-11-24T15:59:22.466Z,7.10
2022-11-24T16:05:42.896Z,7.00
2022-11-24T16:08:46.736Z,6.90
2022-11-24T16:15:24.152Z,6.80
2022-11-24T16:18:09.263Z,6.80
2022-11-24T16:21:15.399Z,6.70
2022-11-24T16:27:26.071Z,6.60
2022-11-24T16:30:38.824Z,6.50
2022-11-24T16:42:07.547Z,6.30
2022-11-24T16:44:37.892Z,6.30
2022-11-24T16:47:06.519Z,6.30
2022-11-24T16:49:36.293Z,6.20
2022-11-24T16:52:10.850Z,6.10
2022-11-24T16:54:41.419Z,6.10
2022-11-24T16:57:14.902Z,6.10
2022-11-24T16:59:46.687Z,6.10
2022-11-24T17:02:16.356Z,6.00
2022-11-24T17:05:17.654Z,6.00
2022-11-24T17:21:33.948Z,5.80
2022-11-24T17:24:20.741Z,5.70
2022-11-24T17:30:17.862Z,5.90
2022-11-24T17:32:53.659Z,5.80
2022-11-24T17:35:29.242Z,5.80
2022-11-24T17:38:08.304Z,5.80
2022-11-24T17:40:38.425Z,5.70
2022-11-24T17:43:15.574Z,5.70
2022-11-24T17:46:10.773Z,5.60
2022-11-24T17:48:46.113Z,5.50
2022-11-24T17:51:16.450Z,5.50
2022-11-24T17:54:31.162Z,5.40
2022-11-24T17:57:08.265Z,5.40
2022-11-24T18:03:50.350Z,5.40
2022-11-24T18:06:30.537Z,5.30
2022-11-24T18:13:48.782Z,5.20
2022-11-24T18:16:14.531Z,5.20
2022-11-24T18:21:21.814Z,5.00
2022-11-24T18:27:04.968Z,5.00
2022-11-24T18:29:33.547Z,4.90
2022-11-24T18:32:02.288Z,4.90
2022-11-24T18:34:30.937Z,4.80
2022-11-24T18:37:00.361Z,4.80
2022-11-24T18:39:32.259Z,4.80
2022-11-24T18:42:03.035Z,4.70
2022-11-24T18:44:31.272Z,4.70
2022-11-24T18:47:01.202Z,4.60
2022-11-24T18:49:48.578Z,4.60
2022-11-24T18:52:31.699Z,4.60
2022-11-24T18:55:13.426Z,4.60
2022-11-24T18:57:43.880Z,4.50
2022-11-24T19:00:13.882Z,4.40
2022-11-24T19:02:42.554Z,4.30
2022-11-24T19:05:11.482Z,4.30
2022-11-24T19:07:39.968Z,4.20
2022-11-24T19:10:09.906Z,4.20
2022-11-24T19:12:41.910Z,4.20
2022-11-24T19:15:15.142Z,4.10
2022-11-24T19:17:47.448Z,4.10
2022-11-24T19:20:17.016Z,4.10
2022-11-24T19:22:48.201Z,4.20
2022-11-24T19:25:17.356Z,4.10
2022-11-24T19:27:45.688Z,4.10
2022-11-24T19:30:16.012Z,4.20
2022-11-24T19:32:44.451Z,4.20
2022-11-24T19:35:12.948Z,4.20
2022-11-24T19:37:41.766Z,4.10
2022-11-24T19:40:11.148Z,4.00
2022-11-24T19:42:39.580Z,4.00
2022-11-24T19:45:09.264Z,4.00
2022-11-24T19:47:39.124Z,3.90
2022-11-24T19:50:10.506Z,3.80
2022-11-24T19:52:39.042Z,3.90
2022-11-24T19:55:12.274Z,3.90
2022-11-24T19:57:42.196Z,3.90
2022-11-24T20:00:13.090Z,3.80
2022-11-24T20:02:44.828Z,3.70
2022-11-24T20:05:15.237Z,3.70
2022-11-24T20:07:46.179Z,3.70
2022-11-24T20:10:19.013Z,3.80
2022-11-24T20:12:48.873Z,3.80
2022-11-24T20:15:17.519Z,3.90
2022-11-24T20:17:50.803Z,3.80
2022-11-24T20:20:19.590Z,3.80
2022-11-24T20:22:48.406Z,3.70
2022-11-24T20:25:19.094Z,3.70
2022-11-24T20:27:53.076Z,3.60
2022-11-24T20:30:26.161Z,3.60
2022-11-24T20:32:57.849Z,3.50
2022-11-24T20:35:26.594Z,3.50
2022-11-24T20:37:58.004Z,3.50
2022-11-24T20:40:28.621Z,3.50
2022-11-24T20:43:01.058Z,3.50
2022-11-24T22:13:20.842Z,3.50
2022-11-24T22:15:50.471Z,3.00
2022-11-24T22:21:43.937Z,2.90
2022-11-24T22:24:31.653Z,2.90
2022-11-24T22:27:04.050Z,2.90
2022-11-24T22:29:32.584Z,3.00
2022-11-24T22:32:05.295Z,3.00
2022-11-24T22:34:34.817Z,3.00
2022-11-24T22:37:05.213Z,3.00
2022-11-24T22:39:38.788Z,2.90
2022-11-24T22:42:15.935Z,3.00
2022-11-24T22:44:44.302Z,3.00
2022-11-24T22:47:13.816Z,2.90
2022-11-24T22:49:58.770Z,2.90
2022-11-24T22:52:27.242Z,2.90
2022-11-24T22:54:55.495Z,2.90
2022-11-24T22:57:25.231Z,2.90
2022-11-24T22:59:54.977Z,3.00
2022-11-24T23:02:23.246Z,3.00
2022-11-24T23:04:52.678Z,3.00
2022-11-24T23:07:21.043Z,3.00
2022-11-24T23:09:50.651Z,2.90
2022-11-24T23:12:19.983Z,2.90
2022-11-24T23:14:53.496Z,2.90
2022-11-24T23:17:23.166Z,3.00
2022-11-24T23:19:53.020Z,3.00
2022-11-24T23:22:25.161Z,3.10
2022-11-24T23:24:55.787Z,3.00
2022-11-24T23:27:24.214Z,3.10
2022-11-24T23:29:54.975Z,3.10
2022-11-24T23:32:25.998Z,3.10
2022-11-24T23:34:55.895Z,3.10
2022-11-24T23:37:39.386Z,3.10
2022-11-24T23:40:16.685Z,3.10
2022-11-24T23:42:50.327Z,3.10
2022-11-24T23:45:25.309Z,3.10
2022-11-24T23:47:55.110Z,3.10
2022-11-24T23:50:26.940Z,3.00
2022-11-24T23:52:58.941Z,3.10
2022-11-24T23:55:28.305Z,3.10
2022-11-24T23:57:56.460Z,3.10
